Time;durP1;ratioP1;P1;durP2;ratioP2;P2;SDS_P1;SDS_P2;PMS_P1;PMS_P2;Temp;Humidity;BMP_temperature;BMP_pressure;BME280_temperature;BME280_humidity;BME280_pressure;Samples;Min_cycle;Max_cycle;Signal;HPM_P1;HPM_P2
2022/06/18 00:00:19;;;;;;;;;;;27.10;59.80;27.10;99926.00;;;;338555;28;91191;-91
2022/06/18 00:00:31;;;;;;;;;;;27.10;59.80;27.20;99924.00;;;;338849;28;94056;-90
2022/06/18 00:00:42;;;;;;;;;;;27.10;59.70;27.20;99920.00;;;;346782;27;91351;-91
2022/06/18 00:00:55;;;;;;;;;;;27.10;59.90;27.20;99931.00;;;;346305;28;96315;-91
2022/06/18 00:01:08;;;;;;;;;;;27.10;59.90;27.30;99928.00;;;;346759;28;92120;-91
2022/06/18 00:01:20;;;;;;;;;;;27.20;59.80;27.20;99928.00;;;;345476;28;94784;-91
2022/06/18 00:01:34;;;;;;;;;;;27.10;59.60;27.10;99930.00;;;;343998;28;92793;-91
2022/06/18 00:01:46;;;;;;;;;;;27.10;59.80;27.10;99924.00;;;;346950;28;95541;-91
2022/06/18 00:01:58;;;;;;;;;;;27.10;60.30;27.10;99931.00;;;;344017;28;92025;-91
2022/06/18 00:02:15;;;;;;;;;;;27.10;60.00;27.10;99926.00;;;;345611;28;94727;-91
2022/06/18 00:02:28;;;;;;;;;;;27.10;59.80;27.20;99925.00;;;;345578;28;91120;-91
2022/06/18 00:02:41;;;;;;;;;;;27.10;59.70;27.20;99928.00;;;;347202;28;94572;-90
2022/06/18 00:02:53;;;;;;;;;;;27.10;59.80;27.00;99922.00;;;;345278;28;92146;-91
2022/06/18 00:03:05;;;;;;;;;;;27.10;60.00;27.00;99928.00;;;;344345;28;96252;-90
2022/06/18 00:03:18;;;;;;;;;;;27.10;60.00;27.10;99931.00;;;;345544;28;91988;-92
2022/06/18 00:03:30;;;;;;;;;;;27.10;60.00;27.10;99920.00;;;;344196;28;96320;-90
2022/06/18 00:03:42;;;;;;;;;;;27.10;60.00;27.20;99921.00;;;;346525;27;92305;-91
2022/06/18 00:03:54;;;;;;;;;;;27.10;59.90;27.10;99917.00;;;;345587;28;95172;-91
2022/06/18 00:04:10;;;;;;;;;;;27.10;59.90;27.20;99926.00;;;;344125;28;91962;-91
2022/06/18 00:04:23;;;;;;;;;;;27.10;59.80;27.20;99924.00;;;;338787;28;95676;-91
2022/06/18 00:04:35;;;;;;;;;;;27.10;59.80;27.20;99921.00;;;;338479;28;91354;-90
2022/06/18 00:04:47;;;;;;;;;;;27.10;59.80;27.20;99922.00;;;;340173;28;94165;-91
2022/06/18 00:04:59;;;;;;;;;;;27.10;59.80;27.20;99924.00;;;;337134;28;92117;-91
2022/06/18 00:05:12;;;;;;;;;;;27.10;59.70;27.20;99915.00;;;;337385;28;96450;-91
2022/06/18 00:05:24;;;;;;;;;;;27.20;59.80;27.00;99923.00;;;;339797;28;92000;-91
2022/06/18 00:05:36;;;;;;;;;;;27.10;59.70;27.00;99921.00;;;;337379;28;95065;-91
2022/06/18 00:05:49;;;;;;;;;;;27.10;59.80;27.10;99918.00;;;;339754;28;92053;-90
2022/06/18 00:06:01;;;;;;;;;;;27.10;59.90;27.20;99916.00;;;;338813;28;94537;-91
2022/06/18 00:06:13;;;;;;;;;;;27.10;59.90;27.20;99922.00;;;;338444;28;92132;-90
2022/06/18 00:06:24;;;;;;;;;;;27.10;60.00;27.10;99916.00;;;;341404;28;96261;-91
2022/06/18 00:06:51;;;;;;;;;;;27.20;60.20;27.00;99917.00;;;;340831;28;91333;-90
2022/06/18 00:07:05;;;;;;;;;;;27.10;60.20;26.90;99915.00;;;;344356;28;94845;-91
2022/06/18 00:07:18;;;;;;;;;;;27.10;60.10;27.00;99919.00;;;;344160;28;91993;-90
2022/06/18 00:07:31;;;;;;;;;;;27.10;60.00;27.00;99916.00;;;;344394;28;94991;-91
2022/06/18 00:07:45;;;;;;;;;;;27.10;59.90;27.10;99913.00;;;;346456;28;92063;-91
2022/06/18 00:07:57;;;;;;;;;;;27.10;59.80;27.10;99909.00;;;;344543;28;95269;-90
2022/06/18 00:08:14;;;;;;;;;;;27.10;59.90;27.10;99911.00;;;;345597;28;91113;-89
2022/06/18 00:08:28;;;;;;;;;;;27.10;60.10;27.10;99910.00;;;;347337;28;95610;-91
2022/06/18 00:08:40;;;;;;;;;;;27.10;60.10;26.90;99919.00;;;;347012;28;92021;-91
2022/06/18 00:08:51;;;;;;;;;;;27.10;60.10;26.90;99915.00;;;;344403;28;95388;-91
2022/06/18 00:09:03;;;;;;;;;;;27.10;60.00;26.90;99909.00;;;;344309;28;91324;-90
2022/06/18 00:09:16;;;;;;;;;;;27.10;59.90;27.00;99913.00;;;;347170;28;94292;-90
2022/06/18 00:09:35;;;;;;;;;;;27.10;59.90;26.90;99919.00;;;;345812;28;91104;-91
2022/06/18 00:09:56;;;;;;;;;;;27.10;60.10;27.00;99916.00;;;;345498;28;95540;-91
2022/06/18 00:10:11;;;;;;;;;;;27.10;60.00;27.00;99909.00;;;;343920;28;92006;-91
2022/06/18 00:10:25;;;;;;;;;;;27.10;60.10;26.90;99907.00;;;;341630;28;94613;-90
2022/06/18 00:10:36;;;;;;;;;;;27.10;60.10;27.00;99916.00;;;;340106;28;91136;-91
2022/06/18 00:10:51;;;;;;;;;;;27.00;59.90;27.00;99915.00;;;;344556;28;94720;-91
2022/06/18 00:13:47;;;;;;;;;;;27.00;60.10;27.10;99906.00;;;;348535;27;95601;-91
2022/06/18 00:13:59;;;;;;;;;;;27.00;59.90;27.10;99917.00;;;;344480;28;91919;-91
2022/06/18 00:14:11;;;;;;;;;;;27.00;60.10;27.00;99914.00;;;;343241;28;94702;-90
2022/06/18 00:14:23;;;;;;;;;;;27.00;60.30;27.00;99915.00;;;;343043;28;92204;-90
2022/06/18 00:14:35;;;;;;;;;;;27.00;60.20;27.00;99915.00;;;;343350;28;94760;-91
2022/06/18 00:14:53;;;;;;;;;;;27.00;60.20;27.00;99912.00;;;;344278;28;91338;-91
2022/06/18 00:15:19;;;;;;;;;;;27.00;60.10;27.10;99912.00;;;;346200;28;95848;-91
2022/06/18 00:15:33;;;;;;;;;;;27.00;60.10;27.10;99913.00;;;;344494;28;91196;-91
2022/06/18 00:15:45;;;;;;;;;;;27.00;60.00;26.90;99905.00;;;;344538;28;94196;-90
2022/06/18 00:15:58;;;;;;;;;;;27.00;60.10;26.90;99912.00;;;;342899;28;92075;-91
2022/06/18 00:16:15;;;;;;;;;;;27.00;60.00;27.00;99915.00;;;;345936;28;95806;-90
2022/06/18 00:16:29;;;;;;;;;;;27.00;60.10;26.90;99920.00;;;;347185;28;91971;-91
2022/06/18 00:16:41;;;;;;;;;;;27.00;60.20;26.90;99915.00;;;;343939;28;96262;-91
2022/06/18 00:16:53;;;;;;;;;;;27.00;60.20;26.80;99909.00;;;;345614;28;92173;-91
2022/06/18 00:17:12;;;;;;;;;;;27.00;60.30;26.90;99909.00;;;;344629;28;95071;-91
2022/06/18 00:17:24;;;;;;;;;;;26.90;60.20;27.00;99913.00;;;;344218;28;91186;-90
2022/06/18 00:17:36;;;;;;;;;;;27.00;60.40;27.00;99909.00;;;;344422;28;96025;-91
2022/06/18 00:17:47;;;;;;;;;;;27.00;60.40;27.00;99905.00;;;;344301;28;91208;-91
2022/06/18 00:17:59;;;;;;;;;;;27.00;60.40;27.00;99914.00;;;;345888;28;94138;-91
2022/06/18 00:18:12;;;;;;;;;;;27.00;60.30;27.00;99912.00;;;;346891;28;91918;-91
2022/06/18 00:18:24;;;;;;;;;;;27.00;60.10;27.00;99914.00;;;;345915;28;96331;-91
2022/06/18 00:18:36;;;;;;;;;;;27.00;60.10;27.00;99908.00;;;;345777;28;92010;-91
2022/06/18 00:18:48;;;;;;;;;;;26.90;60.10;26.90;99911.00;;;;346048;28;95836;-91
2022/06/18 00:19:00;;;;;;;;;;;26.90;60.30;27.00;99913.00;;;;345693;28;91218;-91
2022/06/18 00:19:12;;;;;;;;;;;26.90;60.10;27.00;99915.00;;;;344480;28;94713;-91
2022/06/18 00:19:23;;;;;;;;;;;26.90;60.20;27.00;99912.00;;;;345666;28;92039;-91
2022/06/18 00:19:35;;;;;;;;;;;26.90;60.20;27.00;99912.00;;;;348667;27;94951;-90
2022/06/18 00:19:47;;;;;;;;;;;27.00;60.40;27.00;99916.00;;;;338763;28;91236;-90
2022/06/18 00:19:59;;;;;;;;;;;26.90;60.40;27.00;99916.00;;;;338929;28;94451;-91
2022/06/18 00:20:11;;;;;;;;;;;27.00;60.40;26.90;99915.00;;;;340048;28;91855;-91
2022/06/18 00:20:25;;;;;;;;;;;26.90;60.40;27.00;99914.00;;;;340305;28;95685;-91
2022/06/18 00:20:36;;;;;;;;;;;26.90;60.40;26.90;99921.00;;;;340137;28;91920;-91
2022/06/18 00:20:48;;;;;;;;;;;26.90;60.30;26.90;99914.00;;;;345599;28;94710;-91
2022/06/18 00:21:00;;;;;;;;;;;26.90;60.30;27.00;99915.00;;;;341346;28;92146;-90
2022/06/18 00:21:17;;;;;;;;;;;26.90;60.20;27.00;99904.00;;;;340282;28;96259;-91
2022/06/18 00:21:29;;;;;;;;;;;26.90;60.40;26.90;99919.00;;;;338633;28;91103;-90
2022/06/18 00:21:41;;;;;;;;;;;26.90;60.20;27.00;99919.00;;;;345092;27;95948;-91
2022/06/18 00:21:53;;;;;;;;;;;26.90;60.30;26.90;99913.00;;;;345567;28;90427;-91
2022/06/18 00:22:05;;;;;;;;;;;26.90;60.50;26.90;99911.00;;;;345831;28;95491;-91
2022/06/18 00:22:20;;;;;;;;;;;26.90;60.50;26.80;99919.00;;;;344161;28;92658;-91
2022/06/18 00:22:31;;;;;;;;;;;26.90;60.40;26.90;99912.00;;;;345800;28;96289;-91
2022/06/18 00:22:45;;;;;;;;;;;26.90;60.40;26.80;99905.00;;;;342961;28;92067;-91
2022/06/18 00:22:58;;;;;;;;;;;26.90;60.40;26.80;99917.00;;;;347021;28;96046;-91
2022/06/18 00:23:14;;;;;;;;;;;26.90;60.40;26.90;99917.00;;;;348525;27;91821;-91
2022/06/18 00:23:26;;;;;;;;;;;26.90;60.60;26.90;99911.00;;;;340326;28;95579;-90
2022/06/18 00:23:38;;;;;;;;;;;26.90;60.60;26.90;99915.00;;;;344314;28;91987;-90
2022/06/18 00:23:49;;;;;;;;;;;26.90;60.60;26.90;99912.00;;;;348709;27;95562;-89
2022/06/18 00:24:01;;;;;;;;;;;26.90;60.50;26.90;99909.00;;;;347156;28;90411;-91
2022/06/18 00:24:20;;;;;;;;;;;26.90;60.50;26.90;99909.00;;;;345993;28;93751;-91
2022/06/18 00:24:31;;;;;;;;;;;26.90;60.60;26.90;99911.00;;;;342866;28;91994;-91
2022/06/18 00:24:44;;;;;;;;;;;26.90;60.60;26.80;99910.00;;;;345669;28;94885;-91
2022/06/18 00:24:55;;;;;;;;;;;26.90;60.50;26.90;99906.00;;;;346315;28;92163;-90
2022/06/18 00:25:34;;;;;;;;;;;26.90;60.40;26.80;99912.00;;;;346882;28;95144;-91
2022/06/18 00:25:48;;;;;;;;;;;26.90;60.40;26.90;99914.00;;;;341481;28;92078;-91
2022/06/18 00:25:59;;;;;;;;;;;26.90;60.40;26.90;99903.00;;;;345029;28;95761;-90
2022/06/18 00:26:11;;;;;;;;;;;26.90;60.30;26.90;99911.00;;;;345623;28;91969;-91
2022/06/18 00:26:23;;;;;;;;;;;26.90;60.30;26.90;99906.00;;;;344523;28;96303;-91
2022/06/18 00:26:35;;;;;;;;;;;26.90;60.30;26.90;99906.00;;;;344263;28;91251;-90
2022/06/18 00:26:47;;;;;;;;;;;26.90;60.40;26.90;99910.00;;;;344571;28;94826;-91
2022/06/18 00:26:58;;;;;;;;;;;26.90;60.40;26.90;99911.00;;;;345533;28;91239;-91
2022/06/18 00:27:14;;;;;;;;;;;26.90;60.40;26.90;99913.00;;;;345969;28;95560;-91
2022/06/18 00:27:27;;;;;;;;;;;26.90;60.40;26.90;99915.00;;;;344280;28;92165;-90
2022/06/18 00:27:39;;;;;;;;;;;26.90;60.40;26.90;99909.00;;;;344313;28;94993;-90
2022/06/18 00:27:50;;;;;;;;;;;26.90;60.40;26.90;99910.00;;;;343166;28;91959;-91
2022/06/18 00:28:04;;;;;;;;;;;26.90;60.30;26.90;99905.00;;;;347258;28;94968;-90
2022/06/18 00:28:19;;;;;;;;;;;26.90;60.40;26.90;99905.00;;;;345544;28;92044;-90
2022/06/18 00:28:31;;;;;;;;;;;26.90;60.40;26.90;99909.00;;;;347108;28;95184;-90
2022/06/18 00:28:43;;;;;;;;;;;26.90;60.40;26.90;99904.00;;;;347946;27;91507;-90
2022/06/18 00:28:55;;;;;;;;;;;26.90;60.30;27.00;99915.00;;;;345969;28;95092;-90
2022/06/18 00:29:12;;;;;;;;;;;26.90;60.40;26.90;99912.00;;;;344323;28;91987;-91
2022/06/18 00:29:23;;;;;;;;;;;26.90;60.40;26.80;99903.00;;;;345914;28;94368;-91
2022/06/18 00:29:35;;;;;;;;;;;26.90;60.40;26.80;99913.00;;;;344310;28;92006;-90
2022/06/18 00:29:48;;;;;;;;;;;26.90;60.40;26.90;99908.00;;;;345913;28;94836;-90
2022/06/18 00:30:01;;;;;;;;;;;26.90;60.40;26.90;99915.00;;;;344246;28;92080;-91
2022/06/18 00:30:14;;;;;;;;;;;26.90;60.40;26.90;99919.00;;;;347277;28;96236;-90
2022/06/18 00:30:28;;;;;;;;;;;26.90;60.40;26.90;99912.00;;;;347051;28;91212;-91
2022/06/18 00:30:39;;;;;;;;;;;26.90;60.40;26.90;99915.00;;;;345501;28;95140;-91
2022/06/18 00:30:51;;;;;;;;;;;26.90;60.30;26.90;99916.00;;;;345697;28;91290;-91
2022/06/18 00:31:03;;;;;;;;;;;26.90;60.40;26.90;99912.00;;;;344194;28;95472;-90
2022/06/18 00:31:15;;;;;;;;;;;26.90;60.40;26.80;99918.00;;;;345764;28;91960;-91
2022/06/18 00:31:27;;;;;;;;;;;26.90;60.40;26.80;99914.00;;;;345849;28;95536;-91
2022/06/18 00:31:39;;;;;;;;;;;26.90;60.40;26.80;99916.00;;;;344488;28;92075;-90
2022/06/18 00:31:51;;;;;;;;;;;26.90;60.30;26.80;99918.00;;;;344566;28;94978;-91
2022/06/18 00:32:03;;;;;;;;;;;26.90;60.40;26.80;99914.00;;;;344090;28;92624;-91
2022/06/18 00:32:15;;;;;;;;;;;26.80;60.40;26.80;99918.00;;;;344614;28;93202;-91
2022/06/18 00:32:27;;;;;;;;;;;26.90;60.40;26.80;99917.00;;;;346994;28;91974;-91
2022/06/18 00:32:39;;;;;;;;;;;26.80;60.20;26.80;99919.00;;;;345936;28;94262;-89
2022/06/18 00:32:51;;;;;;;;;;;26.80;60.30;26.70;99918.00;;;;343712;28;91131;-86
2022/06/18 00:33:02;;;;;;;;;;;26.80;60.40;26.80;99922.00;;;;345348;28;91658;-87
2022/06/18 00:33:14;;;;;;;;;;;26.80;60.50;26.80;99916.00;;;;343774;28;91294;-87
2022/06/18 00:33:26;;;;;;;;;;;26.80;60.50;26.90;99913.00;;;;344380;28;96262;-87
2022/06/18 00:33:41;;;;;;;;;;;26.80;60.50;26.90;99909.00;;;;344896;28;92511;-86
2022/06/18 00:33:53;;;;;;;;;;;26.80;60.40;26.90;99918.00;;;;344321;28;94766;-90
2022/06/18 00:34:05;;;;;;;;;;;26.80;60.50;26.80;99918.00;;;;346698;28;92029;-87
2022/06/18 00:34:16;;;;;;;;;;;26.80;60.50;26.80;99922.00;;;;338785;28;96053;-87
2022/06/18 00:34:28;;;;;;;;;;;26.80;60.60;26.70;99914.00;;;;339931;28;91955;-86
2022/06/18 00:34:40;;;;;;;;;;;26.80;60.80;26.70;99915.00;;;;340902;28;93265;-87
2022/06/18 00:34:54;;;;;;;;;;;26.80;60.70;26.80;99912.00;;;;344173;28;91403;-87
2022/06/18 00:35:06;;;;;;;;;;;26.80;60.50;26.80;99916.00;;;;345753;28;95632;-87
2022/06/18 00:35:18;;;;;;;;;;;26.80;60.50;26.80;99911.00;;;;346740;27;91308;-87
2022/06/18 00:35:30;;;;;;;;;;;26.80;60.50;26.80;99912.00;;;;346747;28;96594;-86
2022/06/18 00:35:42;;;;;;;;;;;26.80;60.60;26.70;99914.00;;;;345563;28;92000;-86
2022/06/18 00:35:56;;;;;;;;;;;26.80;60.50;26.80;99916.00;;;;344371;28;95962;-86
2022/06/18 00:36:17;;;;;;;;;;;26.80;60.50;26.90;99918.00;;;;344184;28;91962;-86
2022/06/18 00:36:29;;;;;;;;;;;26.80;60.50;26.80;99915.00;;;;344583;28;93575;-86
2022/06/18 00:36:42;;;;;;;;;;;26.80;60.30;26.80;99918.00;;;;345025;28;92165;-86
2022/06/18 00:36:54;;;;;;;;;;;26.80;60.40;26.80;99918.00;;;;343681;28;93948;-86
2022/06/18 00:37:05;;;;;;;;;;;26.80;60.60;26.80;99915.00;;;;343542;28;91503;-86
2022/06/18 00:37:19;;;;;;;;;;;26.80;60.70;26.80;99914.00;;;;344009;28;94520;-85
2022/06/18 00:37:32;;;;;;;;;;;26.80;60.70;26.80;99912.00;;;;342377;28;92936;-86
2022/06/18 00:37:43;;;;;;;;;;;26.80;60.60;26.70;99903.00;;;;344491;28;93413;-86
2022/06/18 00:37:56;;;;;;;;;;;26.80;60.80;26.70;99915.00;;;;345303;28;91930;-86
2022/06/18 00:38:13;;;;;;;;;;;26.80;60.70;26.70;99914.00;;;;345418;28;94529;-86
2022/06/18 00:38:35;;;;;;;;;;;26.80;60.80;26.60;99918.00;;;;346110;28;92184;-86
2022/06/18 00:38:47;;;;;;;;;;;26.70;60.50;26.60;99918.00;;;;344500;28;96047;-87
2022/06/18 00:39:00;;;;;;;;;;;26.70;60.90;26.60;99912.00;;;;345559;28;91957;-86
2022/06/18 00:39:13;;;;;;;;;;;26.70;60.90;26.60;99914.00;;;;338905;28;95539;-86
2022/06/18 00:39:24;;;;;;;;;;;26.70;60.70;26.60;99921.00;;;;345222;28;91393;-86
2022/06/18 00:39:36;;;;;;;;;;;26.70;60.80;26.60;99914.00;;;;345404;28;95941;-85
2022/06/18 00:39:48;;;;;;;;;;;26.70;60.70;26.70;99911.00;;;;345701;28;91116;-87
2022/06/18 00:40:00;;;;;;;;;;;26.70;60.70;26.70;99918.00;;;;342845;28;96402;-86
2022/06/18 00:40:15;;;;;;;;;;;26.70;60.70;26.60;99912.00;;;;341074;28;92008;-86
2022/06/18 00:40:30;;;;;;;;;;;26.70;60.90;26.40;99912.00;;;;338894;28;92915;-86
2022/06/18 00:40:42;;;;;;;;;;;26.70;61.10;26.40;99914.00;;;;342328;28;92074;-86
2022/06/18 00:40:55;;;;;;;;;;;26.60;61.00;26.50;99916.00;;;;345902;28;92392;-87
2022/06/18 00:41:07;;;;;;;;;;;26.60;60.90;26.50;99911.00;;;;346142;28;92096;-86
2022/06/18 00:41:21;;;;;;;;;;;26.60;61.00;26.60;99908.00;;;;345608;28;92416;-85
2022/06/18 00:41:33;;;;;;;;;;;26.60;61.10;26.60;99916.00;;;;344662;28;91324;-86
2022/06/18 00:41:46;;;;;;;;;;;26.60;61.00;26.70;99913.00;;;;345961;28;92718;-86
2022/06/18 00:42:00;;;;;;;;;;;26.60;60.90;26.80;99907.00;;;;345600;28;92013;-86
2022/06/18 00:42:21;;;;;;;;;;;26.60;61.00;26.60;99909.00;;;;347279;28;95802;-86
2022/06/18 00:42:33;;;;;;;;;;;26.60;61.00;26.50;99912.00;;;;345505;28;92081;-86
2022/06/18 00:42:45;;;;;;;;;;;26.60;60.80;26.50;99908.00;;;;345400;28;96434;-86
2022/06/18 00:43:11;;;;;;;;;;;26.60;60.90;26.50;99912.00;;;;345132;28;92133;-87
2022/06/18 00:43:29;;;;;;;;;;;26.60;60.90;26.50;99914.00;;;;344602;28;95635;-86
2022/06/18 00:43:44;;;;;;;;;;;26.60;60.80;26.50;99911.00;;;;344864;28;91901;-86
2022/06/18 00:44:02;;;;;;;;;;;26.60;61.00;26.50;99911.00;;;;344388;28;95697;-86
2022/06/18 00:44:28;;;;;;;;;;;26.60;60.90;26.50;99909.00;;;;343083;28;91223;-86
2022/06/18 00:44:40;;;;;;;;;;;26.60;61.10;26.60;99909.00;;;;344324;28;95614;-86
2022/06/18 00:44:54;;;;;;;;;;;26.50;60.90;26.60;99910.00;;;;344171;28;91218;-86
2022/06/18 00:45:06;;;;;;;;;;;26.60;61.10;26.70;99903.00;;;;344223;28;94581;-87
2022/06/18 00:45:20;;;;;;;;;;;26.60;61.10;26.60;99901.00;;;;342930;28;91801;-86
2022/06/18 00:45:32;;;;;;;;;;;26.60;61.10;26.60;99905.00;;;;342978;28;94865;-86
2022/06/18 00:45:44;;;;;;;;;;;26.60;61.20;26.70;99896.00;;;;345821;28;92130;-86
2022/06/18 00:46:00;;;;;;;;;;;26.60;61.20;26.60;99903.00;;;;347090;28;96270;-87
2022/06/18 00:46:25;;;;;;;;;;;26.60;61.30;26.70;99906.00;;;;343830;28;92902;-86
2022/06/18 00:47:15;;;;;;;;;;;26.60;61.10;26.70;99909.00;;;;345772;28;93614;-86
2022/06/18 00:47:41;;;;;;;;;;;26.60;61.10;26.50;99906.00;;;;342891;28;90255;-86
2022/06/18 00:47:56;;;;;;;;;;;26.60;61.80;26.60;99907.00;;;;345754;28;95857;-86
2022/06/18 00:48:23;;;;;;;;;;;26.50;61.30;26.50;99902.00;;;;345522;28;91888;-86
2022/06/18 00:48:54;;;;;;;;;;;26.60;61.30;26.50;99907.00;;;;345431;28;93515;-86
2022/06/18 00:49:24;;;;;;;;;;;26.60;61.40;26.50;99910.00;;;;342751;28;92051;-86
2022/06/18 00:49:45;;;;;;;;;;;26.60;61.40;26.50;99904.00;;;;343544;28;95953;-86
2022/06/18 00:50:04;;;;;;;;;;;26.50;61.30;26.60;99902.00;;;;338576;28;92097;-86
2022/06/18 00:50:22;;;;;;;;;;;26.50;61.40;26.60;99900.00;;;;337443;28;94758;-86
2022/06/18 00:50:38;;;;;;;;;;;26.50;61.40;26.60;99905.00;;;;337252;28;91871;-86
2022/06/18 00:51:03;;;;;;;;;;;26.50;61.30;26.60;99901.00;;;;338819;28;96363;-86
2022/06/18 00:51:22;;;;;;;;;;;26.50;61.20;26.70;99894.00;;;;338727;28;91308;-86
2022/06/18 00:51:39;;;;;;;;;;;26.50;61.20;26.60;99901.00;;;;337503;28;92710;-86
2022/06/18 00:51:53;;;;;;;;;;;26.50;61.40;26.50;99893.00;;;;344517;28;92010;-86
2022/06/18 00:52:14;;;;;;;;;;;26.50;61.30;26.40;99903.00;;;;345757;28;95844;-86
2022/06/18 00:52:44;;;;;;;;;;;26.50;61.40;26.50;99901.00;;;;338586;28;91940;-87
2022/06/18 00:53:27;;;;;;;;;;;26.50;61.60;26.50;99897.00;;;;345649;28;93136;-86
2022/06/18 00:53:44;;;;;;;;;;;26.50;61.50;26.50;99900.00;;;;344094;28;92036;-84
2022/06/18 00:54:18;;;;;;;;;;;26.50;61.70;26.30;99900.00;;;;345731;28;96158;-86
2022/06/18 00:55:06;;;;;;;;;;;26.50;61.70;26.40;99895.00;;;;344071;28;92122;-86
2022/06/18 00:55:25;;;;;;;;;;;26.50;61.80;26.40;99892.00;;;;341684;28;93703;-86
2022/06/18 00:55:46;;;;;;;;;;;26.50;61.70;26.40;99898.00;;;;342299;28;91289;-86
2022/06/18 00:56:09;;;;;;;;;;;26.40;61.60;26.30;99894.00;;;;338907;28;93192;-86
2022/06/18 00:56:43;;;;;;;;;;;26.40;61.70;26.30;99901.00;;;;338546;28;92181;-86
2022/06/18 00:57:00;;;;;;;;;;;26.40;61.50;26.10;99893.00;;;;340234;28;92399;-86
2022/06/18 00:57:28;;;;;;;;;;;26.40;62.00;26.10;99895.00;;;;338584;28;91938;-86
2022/06/18 00:57:58;;;;;;;;;;;26.40;62.00;26.30;99894.00;;;;344422;28;93256;-86
2022/06/18 00:58:23;;;;;;;;;;;26.30;62.00;26.30;99895.00;;;;345291;28;92089;-87
2022/06/18 00:58:43;;;;;;;;;;;26.40;62.10;26.20;99898.00;;;;340221;28;93371;-86
2022/06/18 00:58:56;;;;;;;;;;;26.30;62.00;26.30;99891.00;;;;344102;28;92057;-86
2022/06/18 00:59:59;;;;;;;;;;;26.30;61.80;26.20;99889.00;;;;345860;28;95451;-86
2022/06/18 01:00:44;;;;;;;;;;;26.30;62.00;26.20;99898.00;;;;344126;28;91131;-86
2022/06/18 01:00:56;;;;;;;;;;;26.30;62.20;26.10;99892.00;;;;342357;28;95515;-86
2022/06/18 01:01:15;;;;;;;;;;;26.30;62.20;26.20;99885.00;;;;342506;28;91900;-87
2022/06/18 01:01:32;;;;;;;;;;;26.30;62.20;26.10;99887.00;;;;340277;28;96447;-86
2022/06/18 01:01:45;;;;;;;;;;;26.30;62.40;26.00;99896.00;;;;338660;28;92190;-86
2022/06/18 01:01:57;;;;;;;;;;;26.20;62.40;26.10;99890.00;;;;340317;28;96276;-87
2022/06/18 01:02:17;;;;;;;;;;;26.20;62.20;26.10;99894.00;;;;341419;28;91970;-86
2022/06/18 01:02:36;;;;;;;;;;;26.20;62.20;26.00;99899.00;;;;342968;28;96562;-86
2022/06/18 01:02:49;;;;;;;;;;;26.20;62.30;26.00;99892.00;;;;341398;28;92081;-86
2022/06/18 01:03:00;;;;;;;;;;;26.20;62.40;25.90;99887.00;;;;341666;28;93419;-86
2022/06/18 01:03:27;;;;;;;;;;;26.20;62.30;26.00;99893.00;;;;342798;28;91260;-86
2022/06/18 01:03:39;;;;;;;;;;;26.20;62.40;26.00;99888.00;;;;343736;28;92861;-86
2022/06/18 01:03:50;;;;;;;;;;;26.20;62.20;26.00;99899.00;;;;339905;28;91964;-85
2022/06/18 01:04:23;;;;;;;;;;;26.20;62.00;26.00;99896.00;;;;341128;28;93248;-87
2022/06/18 01:04:35;;;;;;;;;;;26.20;62.20;25.90;99894.00;;;;341474;28;91960;-86
2022/06/18 01:04:47;;;;;;;;;;;26.20;62.40;25.90;99887.00;;;;338883;28;97055;-86
2022/06/18 01:04:59;;;;;;;;;;;26.20;63.00;26.10;99894.00;;;;340012;28;92045;-86
2022/06/18 01:05:18;;;;;;;;;;;26.10;62.30;26.20;99895.00;;;;341672;28;96501;-86
2022/06/18 01:05:38;;;;;;;;;;;26.20;62.50;26.10;99899.00;;;;342794;28;91962;-86
2022/06/18 01:05:49;;;;;;;;;;;26.20;62.40;26.10;99901.00;;;;344323;28;95790;-86
2022/06/18 01:06:04;;;;;;;;;;;26.20;62.20;26.10;99895.00;;;;342700;28;91271;-86
2022/06/18 01:06:31;;;;;;;;;;;26.20;62.50;26.10;99892.00;;;;341558;28;94511;-86
2022/06/18 01:06:43;;;;;;;;;;;26.20;62.40;26.20;99897.00;;;;342257;28;92335;-86
2022/06/18 01:07:01;;;;;;;;;;;26.20;62.40;26.20;99897.00;;;;339608;28;95790;-87
2022/06/18 01:07:31;;;;;;;;;;;26.10;62.50;26.00;99897.00;;;;341016;28;92122;-86
2022/06/18 01:07:43;;;;;;;;;;;26.20;62.60;25.90;99903.00;;;;342983;28;93273;-86
2022/06/18 01:08:09;;;;;;;;;;;26.20;62.70;26.00;99903.00;;;;341415;28;91918;-87
2022/06/18 01:08:22;;;;;;;;;;;26.10;62.60;26.20;99891.00;;;;341602;28;93970;-86
2022/06/18 01:08:34;;;;;;;;;;;26.10;62.80;26.20;99897.00;;;;341417;28;92146;-86
2022/06/18 01:08:46;;;;;;;;;;;26.10;62.80;26.20;99897.00;;;;341605;28;95274;-86
2022/06/18 01:09:04;;;;;;;;;;;26.10;62.70;26.00;99896.00;;;;341273;28;90490;-86
2022/06/18 01:09:16;;;;;;;;;;;26.10;62.70;26.00;99896.00;;;;342853;28;95218;-87
2022/06/18 01:09:28;;;;;;;;;;;26.10;62.70;26.10;99891.00;;;;340009;28;92098;-86
2022/06/18 01:09:40;;;;;;;;;;;26.10;62.50;26.10;99892.00;;;;341288;28;93537;-86
2022/06/18 01:09:51;;;;;;;;;;;26.10;62.60;26.10;99894.00;;;;340858;28;92216;-86
2022/06/18 01:10:05;;;;;;;;;;;26.10;62.60;26.20;99893.00;;;;344360;28;95653;-86
2022/06/18 01:10:32;;;;;;;;;;;26.10;62.60;26.20;99895.00;;;;342769;28;91988;-86
2022/06/18 01:10:51;;;;;;;;;;;26.10;62.60;26.10;99891.00;;;;340624;28;93287;-86
2022/06/18 01:11:05;;;;;;;;;;;26.20;62.70;26.20;99892.00;;;;341385;28;92149;-86
2022/06/18 01:11:23;;;;;;;;;;;26.10;62.60;26.10;99888.00;;;;340397;28;93523;-86
2022/06/18 01:11:36;;;;;;;;;;;26.20;62.60;26.20;99889.00;;;;342821;28;91261;-86
2022/06/18 01:11:48;;;;;;;;;;;26.10;62.60;26.20;99889.00;;;;340329;28;95348;-86
2022/06/18 01:11:59;;;;;;;;;;;26.10;62.70;26.20;99892.00;;;;342676;28;92024;-86
2022/06/18 01:12:11;;;;;;;;;;;26.10;62.70;26.20;99896.00;;;;343091;28;92799;-86
2022/06/18 01:12:23;;;;;;;;;;;26.10;62.60;26.10;99889.00;;;;342697;28;92029;-86
2022/06/18 01:12:35;;;;;;;;;;;26.10;62.70;26.10;99893.00;;;;339714;28;93526;-86
2022/06/18 01:12:46;;;;;;;;;;;26.10;62.70;26.20;99891.00;;;;339048;28;91947;-86
2022/06/18 01:12:58;;;;;;;;;;;26.10;62.70;26.20;99897.00;;;;341344;28;96721;-86
2022/06/18 01:13:15;;;;;;;;;;;26.10;62.70;26.20;99893.00;;;;340240;28;92045;-86
2022/06/18 01:13:29;;;;;;;;;;;26.10;62.70;26.20;99885.00;;;;340309;28;95790;-86
2022/06/18 01:13:41;;;;;;;;;;;26.10;62.60;26.10;99892.00;;;;341398;28;91299;-86
2022/06/18 01:13:53;;;;;;;;;;;26.10;62.60;26.00;99887.00;;;;340347;28;94991;-86
2022/06/18 01:14:05;;;;;;;;;;;26.10;62.80;26.00;99887.00;;;;342705;28;91907;-86
2022/06/18 01:14:17;;;;;;;;;;;26.10;62.80;26.00;99890.00;;;;343023;28;96195;-86
2022/06/18 01:14:29;;;;;;;;;;;26.10;62.80;26.00;99885.00;;;;341311;28;91998;-86
2022/06/18 01:14:40;;;;;;;;;;;26.10;62.50;26.00;99892.00;;;;340395;28;95489;-86
2022/06/18 01:14:56;;;;;;;;;;;26.10;62.90;26.10;99898.00;;;;339775;28;92026;-87
2022/06/18 01:15:09;;;;;;;;;;;26.10;62.90;26.10;99885.00;;;;342995;28;93822;-86
2022/06/18 01:15:21;;;;;;;;;;;26.10;62.80;26.20;99890.00;;;;340093;28;91992;-86
2022/06/18 01:15:33;;;;;;;;;;;26.10;63.30;26.20;99882.00;;;;341630;28;96521;-86
2022/06/18 01:15:45;;;;;;;;;;;26.10;62.60;26.20;99889.00;;;;341825;28;91249;-86
2022/06/18 01:15:57;;;;;;;;;;;26.10;62.60;26.20;99886.00;;;;341484;28;96705;-86
2022/06/18 01:16:09;;;;;;;;;;;26.10;62.70;26.20;99889.00;;;;340487;28;92010;-86
2022/06/18 01:16:21;;;;;;;;;;;26.10;62.80;26.10;99885.00;;;;340456;28;93484;-86
2022/06/18 01:16:33;;;;;;;;;;;26.10;62.70;26.10;99890.00;;;;341477;28;91977;-86
2022/06/18 01:16:45;;;;;;;;;;;26.10;62.60;26.10;99884.00;;;;341667;28;93168;-86
2022/06/18 01:16:59;;;;;;;;;;;26.10;62.40;26.00;99888.00;;;;340086;28;92122;-86
2022/06/18 01:17:11;;;;;;;;;;;26.10;62.50;26.10;99879.00;;;;341769;28;93562;-86
2022/06/18 01:17:22;;;;;;;;;;;26.10;62.50;26.20;99886.00;;;;340315;28;91912;-87
2022/06/18 01:17:35;;;;;;;;;;;26.10;62.60;26.10;99882.00;;;;340437;28;93460;-87
2022/06/18 01:17:49;;;;;;;;;;;26.10;62.70;26.00;99890.00;;;;342936;28;91236;-86
2022/06/18 01:18:00;;;;;;;;;;;26.10;62.70;26.00;99884.00;;;;341674;28;92701;-87